Time;durP1;ratioP1;P1;durP2;ratioP2;P2;SDS_P1;SDS_P2;PMS_P1;PMS_P2;Temp;Humidity;BMP_temperature;BMP_pressure;BME280_temperature;BME280_humidity;BME280_pressure;Samples;Min_cycle;Max_cycle;Signal;HPM_P1;HPM_P2
2023/01/16 00:01:05;;;;;;;;;0.75;0.00;;;;;8.66;79.22;98959.72;5073697;28;45758;-76
2023/01/16 00:03:30;;;;;;;;;0.00;0.00;;;;;8.71;79.13;98949.69;5073756;28;45718;-74
2023/01/16 00:05:56;;;;;;;;;1.00;0.00;;;;;8.69;79.15;98935.16;5055342;28;45965;-77
2023/01/16 00:08:21;;;;;;;;;0.00;0.00;;;;;8.72;79.07;98920.03;5073817;28;45607;-76
2023/01/16 00:10:46;;;;;;;;;1.50;0.00;;;;;8.75;79.36;98903.25;5073943;28;45783;-77
2023/01/16 00:16:33;;;;;;;;;0.00;0.00;;;;;8.68;78.82;98855.19;5075035;28;45485;-77
2023/01/16 00:18:58;;;;;;;;;0.50;0.50;;;;;8.75;79.16;98851.84;5074586;28;47028;-78
2023/01/16 00:21:25;;;;;;;;;2.00;0.00;;;;;8.74;78.47;98841.56;5074040;28;45710;-79
2023/01/16 00:23:52;;;;;;;;;1.00;0.25;;;;;8.74;78.89;98820.69;5073668;28;45710;-81
2023/01/16 00:26:18;;;;;;;;;1.00;1.00;;;;;8.71;79.06;98795.66;5074369;28;45650;-79
2023/01/16 00:32:05;;;;;;;;;1.00;0.00;;;;;8.68;78.88;98755.97;5068984;28;46241;-82
2023/01/16 00:34:30;;;;;;;;;0.75;0.00;;;;;8.74;78.65;98755.41;5073778;28;45677;-77
2023/01/16 00:36:56;;;;;;;;;0.00;0.00;;;;;8.72;79.00;98733.84;5073301;28;45668;-79
2023/01/16 00:39:21;;;;;;;;;0.50;0.00;;;;;8.73;78.99;98727.66;5072385;28;48667;-80
2023/01/16 00:41:46;;;;;;;;;0.25;0.00;;;;;8.71;79.17;98709.53;5073884;28;45683;-78
2023/01/16 00:47:33;;;;;;;;;0.50;0.00;;;;;8.71;79.03;98675.59;5074449;28;45546;-77
2023/01/16 00:49:58;;;;;;;;;0.00;0.00;;;;;8.72;78.94;98642.47;5074579;28;45631;-80
2023/01/16 00:52:24;;;;;;;;;0.00;0.00;;;;;8.72;78.93;98642.47;5074239;28;46095;-80
2023/01/16 00:54:49;;;;;;;;;0.00;0.00;;;;;8.65;79.22;98615.28;5073863;28;45503;-77
2023/01/16 00:57:14;;;;;;;;;0.25;0.00;;;;;8.72;79.10;98616.38;5073868;28;45500;-79
2023/01/16 01:03:03;;;;;;;;;0.75;0.00;;;;;8.64;78.84;98562.28;5074106;28;45875;-77
2023/01/16 01:05:29;;;;;;;;;1.00;0.00;;;;;8.68;79.08;98550.59;5074310;28;45517;-80
2023/01/16 01:07:54;;;;;;;;;0.00;0.00;;;;;8.74;78.74;98550.00;5074008;28;45793;-79
2023/01/16 01:10:19;;;;;;;;;0.25;0.00;;;;;8.74;78.53;98525.69;5073268;28;45522;-76
2023/01/16 01:12:45;;;;;;;;;0.75;0.00;;;;;8.68;78.71;98501.00;5072796;28;47167;-76
2023/01/16 01:18:32;;;;;;;;;0.00;0.00;;;;;8.73;78.60;98466.59;5073214;28;45547;-78
2023/01/16 01:20:58;;;;;;;;;0.75;0.00;;;;;8.68;78.78;98448.78;5073154;28;45573;-80
2023/01/16 01:23:23;;;;;;;;;1.00;1.00;;;;;8.72;78.55;98433.63;5072943;27;45834;-77
2023/01/16 01:25:49;;;;;;;;;0.00;0.00;;;;;8.70;78.57;98435.56;5073331;28;45549;-76
2023/01/16 01:28:15;;;;;;;;;0.75;0.00;;;;;8.72;79.07;98429.25;5073891;28;45443;-77
2023/01/16 01:34:16;;;;;;;;;0.25;0.00;;;;;8.71;78.62;98380.59;5067420;28;46286;-78
2023/01/16 01:36:41;;;;;;;;;0.00;0.00;;;;;8.52;78.17;98335.63;5076666;28;46110;-76
2023/01/16 01:39:07;;;;;;;;;0.00;0.00;;;;;8.70;78.42;98328.53;5076663;28;45605;-75
2023/01/16 01:41:33;;;;;;;;;0.00;0.00;;;;;8.70;78.48;98324.16;5076166;28;46356;-77
2023/01/16 01:43:58;;;;;;;;;2.25;0.00;;;;;8.51;78.27;98264.34;5076403;28;45684;-76
2023/01/16 01:46:46;;;;;;;;;0.00;0.00;;;;;8.72;78.90;98308.34;5075968;28;45714;-75
2023/01/16 01:49:31;;;;;;;;;0.00;0.00;;;;;8.73;79.01;98282.09;5076275;28;45451;-75
2023/01/16 01:52:03;;;;;;;;;0.25;0.00;;;;;8.74;78.79;98270.69;5076045;27;46313;-77
2023/01/16 01:54:33;;;;;;;;;0.00;0.00;;;;;8.73;79.04;98244.72;5058629;28;47578;-77
2023/01/16 01:57:10;;;;;;;;;0.00;0.00;;;;;8.75;78.99;98230.53;5076075;28;45763;-75
2023/01/16 01:59:42;;;;;;;;;2.00;0.00;;;;;8.67;79.29;98208.81;5074454;28;45888;-74
2023/01/16 02:02:13;;;;;;;;;0.00;0.00;;;;;8.66;79.18;98194.94;5075421;28;47482;-76
2023/01/16 02:04:41;;;;;;;;;0.00;0.00;;;;;8.68;79.18;98176.53;5075982;28;46361;-75
2023/01/16 02:07:09;;;;;;;;;0.00;0.00;;;;;8.73;79.19;98167.25;5075837;28;45482;-76
2023/01/16 02:09:36;;;;;;;;;1.00;0.00;;;;;8.74;79.27;98165.44;5075541;28;45767;-75
2023/01/16 02:12:07;;;;;;;;;0.00;0.00;;;;;8.68;79.56;98147.81;5075322;28;46498;-75
2023/01/16 02:14:36;;;;;;;;;0.00;0.00;;;;;8.63;79.44;98140.47;5075459;28;47476;-79
2023/01/16 02:20:18;;;;;;;;;0.00;0.00;;;;;8.75;80.30;98109.63;5075841;28;45640;-75
2023/01/16 02:22:43;;;;;;;;;0.00;0.00;;;;;8.74;80.36;98100.19;5075048;28;46685;-74
2023/01/16 02:25:11;;;;;;;;;0.00;0.00;;;;;8.75;80.26;98099.19;5075246;28;46287;-76
2023/01/16 02:28:15;;;;;;;;;0.00;0.00;;;;;8.73;80.07;98062.00;5075294;28;45740;-77
2023/01/16 02:31:01;;;;;;;;;0.00;0.00;;;;;8.69;80.49;98063.31;5075277;28;45935;-75
2023/01/16 02:33:51;;;;;;;;;0.00;0.00;;;;;8.64;80.58;98040.28;5073458;28;46881;-75
2023/01/16 02:36:35;;;;;;;;;0.25;0.00;;;;;8.64;80.61;98040.28;5075338;28;47122;-76
2023/01/16 02:39:21;;;;;;;;;0.00;0.00;;;;;8.61;80.36;98024.13;5075498;28;45728;-72
2023/01/16 02:41:52;;;;;;;;;0.00;0.00;;;;;8.60;80.57;98012.06;5075946;28;45732;-79
2023/01/16 02:47:36;;;;;;;;;0.00;0.00;;;;;8.58;80.43;97985.31;5075867;28;45964;-77
2023/01/16 02:50:23;;;;;;;;;0.00;0.00;;;;;8.55;80.86;97973.41;5075488;28;45714;-79
2023/01/16 02:52:51;;;;;;;;;0.00;0.00;;;;;8.54;80.64;97963.94;5075031;28;45799;-76
2023/01/16 02:55:35;;;;;;;;;0.00;0.00;;;;;8.54;80.71;97935.22;5075413;28;45648;-80
2023/01/16 02:58:05;;;;;;;;;0.00;0.00;;;;;8.52;80.63;97937.22;5074628;28;47524;-76
2023/01/16 03:03:52;;;;;;;;;0.00;0.00;;;;;8.50;80.65;97907.03;5074941;28;45696;-75
2023/01/16 03:06:31;;;;;;;;;1.00;0.00;;;;;8.46;80.76;97913.56;5074600;28;47655;-77
2023/01/16 03:09:07;;;;;;;;;0.00;0.00;;;;;8.41;80.89;97894.00;5074517;28;47112;-78
2023/01/16 03:11:42;;;;;;;;;0.00;0.00;;;;;8.44;81.08;97903.28;5074799;28;45658;-77
2023/01/16 03:14:27;;;;;;;;;0.00;0.00;;;;;8.41;81.00;97899.22;5074911;28;45739;-80
2023/01/16 03:20:49;;;;;;;;;0.25;0.00;;;;;8.26;81.19;97853.81;5074568;28;45636;-74
2023/01/16 03:23:28;;;;;;;;;0.00;0.00;;;;;8.32;81.26;97861.03;5074696;28;45553;-77
2023/01/16 03:26:06;;;;;;;;;0.00;0.00;;;;;8.33;80.96;97878.31;5075086;28;45602;-77
2023/01/16 03:28:52;;;;;;;;;0.00;0.00;;;;;8.30;81.15;97860.41;5075316;28;46511;-77
2023/01/16 03:31:38;;;;;;;;;0.00;0.00;;;;;8.27;81.44;97837.19;5075238;28;46220;-77
2023/01/16 03:34:36;;;;;;;;;0.00;0.00;;;;;8.26;81.46;97853.81;5074636;28;45633;-77
2023/01/16 03:37:41;;;;;;;;;0.00;0.00;;;;;8.23;81.30;97835.91;5032606;28;45752;-77
2023/01/16 03:40:12;;;;;;;;;0.00;0.00;;;;;8.19;81.43;97841.63;5032175;28;45974;-76
2023/01/16 03:43:00;;;;;;;;;0.00;0.00;;;;;8.14;81.32;97838.69;5031998;28;45884;-76
2023/01/16 03:49:05;;;;;;;;;0.00;0.00;;;;;8.11;81.30;97803.28;5032448;28;45802;-76
2023/01/16 03:51:35;;;;;;;;;0.00;0.00;;;;;8.07;81.64;97796.78;5031683;28;47608;-75
2023/01/16 03:54:00;;;;;;;;;0.00;0.00;;;;;8.09;81.64;97810.47;5030950;28;46317;-76
2023/01/16 03:56:58;;;;;;;;;0.00;0.00;;;;;8.10;81.42;97774.81;5031347;28;45621;-77
2023/01/16 03:59:24;;;;;;;;;0.00;0.00;;;;;8.06;81.46;97776.09;5021288;28;45734;-79
2023/01/16 04:05:19;;;;;;;;;0.00;0.00;;;;;8.01;80.86;97760.94;5032337;28;45496;-75
2023/01/16 04:07:51;;;;;;;;;0.00;0.00;;;;;7.98;81.20;97712.56;5031500;28;45607;-79
2023/01/16 04:10:25;;;;;;;;;0.00;0.00;;;;;7.92;81.06;97736.66;5015373;28;45820;-75
2023/01/16 04:12:54;;;;;;;;;0.00;0.00;;;;;7.94;81.11;97736.47;5055789;28;45941;-75
2023/01/16 04:15:23;;;;;;;;;0.00;0.00;;;;;7.93;81.24;97733.09;5073369;28;47588;-74
2023/01/16 04:21:10;;;;;;;;;0.00;0.00;;;;;7.93;81.41;97711.41;5073689;28;45693;-77
2023/01/16 04:23:36;;;;;;;;;0.00;0.00;;;;;7.91;81.40;97690.72;5073776;28;45497;-77
2023/01/16 04:26:01;;;;;;;;;0.00;0.00;;;;;7.89;81.27;97689.25;5073333;28;46261;-77
2023/01/16 04:28:27;;;;;;;;;0.00;0.00;;;;;7.89;81.12;97674.44;5073253;28;45533;-75
2023/01/16 04:30:52;;;;;;;;;0.00;0.00;;;;;7.88;81.19;97682.44;5073532;28;45613;-76
2023/01/16 04:33:17;;;;;;;;;0.00;0.00;;;;;7.83;80.95;97651.63;5073121;28;45644;-75
2023/01/16 04:35:43;;;;;;;;;0.00;0.00;;;;;7.85;80.92;97660.09;5054977;28;46884;-76
2023/01/16 04:38:08;;;;;;;;;0.00;0.00;;;;;7.77;80.72;97631.47;5055129;28;45563;-76
2023/01/16 04:40:33;;;;;;;;;0.00;0.00;;;;;7.83;80.74;97648.19;5073431;28;45841;-77
2023/01/16 04:42:59;;;;;;;;;0.00;0.00;;;;;7.83;80.81;97629.97;5073460;28;46501;-78
2023/01/16 04:45:24;;;;;;;;;0.00;0.00;;;;;7.83;80.67;97637.78;5055002;28;46209;-76
2023/01/16 04:51:11;;;;;;;;;0.00;0.00;;;;;7.80;80.64;97604.25;5073107;28;45639;-79
2023/01/16 04:53:37;;;;;;;;;0.00;0.00;;;;;7.84;80.73;97601.13;5073052;28;47375;-76
2023/01/16 04:56:02;;;;;;;;;0.00;0.00;;;;;7.77;81.12;97581.94;5072270;28;46457;-77
2023/01/16 04:58:27;;;;;;;;;0.00;0.00;;;;;7.83;80.97;97568.22;5072944;28;45513;-77
2023/01/16 05:00:53;;;;;;;;;0.00;0.00;;;;;7.81;81.40;97551.97;5073173;28;45565;-76
2023/01/16 05:06:41;;;;;;;;;0.00;0.00;;;;;7.89;81.11;97528.47;5075160;28;45668;-76
2023/01/16 05:09:07;;;;;;;;;0.00;0.00;;;;;7.87;81.25;97519.22;5076441;28;45565;-78
2023/01/16 05:11:34;;;;;;;;;0.00;0.00;;;;;7.94;81.38;97526.16;5076726;28;45584;-76
2023/01/16 05:14:00;;;;;;;;;0.00;0.00;;;;;7.95;81.47;97506.13;5058263;28;48869;-78
2023/01/16 05:16:26;;;;;;;;;0.00;0.00;;;;;7.90;81.39;97490.19;5076902;28;46332;-79
2023/01/16 05:18:52;;;;;;;;;0.00;0.00;;;;;7.99;81.65;97486.56;5076714;28;45585;-76
2023/01/16 05:21:17;;;;;;;;;0.25;0.00;;;;;8.01;81.54;97482.00;5077231;28;45776;-77
2023/01/16 05:23:43;;;;;;;;;0.00;0.00;;;;;7.97;81.64;97463.28;5077118;28;46313;-76
2023/01/16 05:26:08;;;;;;;;;0.00;0.00;;;;;8.01;81.64;97466.34;5058357;28;46868;-76
2023/01/16 05:28:35;;;;;;;;;0.00;0.00;;;;;8.01;81.83;97461.97;5058071;28;46122;-75
2023/01/16 05:31:02;;;;;;;;;0.00;0.00;;;;;8.05;81.73;97440.75;5076332;28;45899;-78
2023/01/16 05:37:30;;;;;;;;;1.00;0.00;;;;;8.09;81.46;97435.06;5071729;28;45836;-77
2023/01/16 05:39:57;;;;;;;;;0.00;0.00;;;;;8.09;81.76;97429.84;5076128;28;45620;-77
2023/01/16 05:42:24;;;;;;;;;0.00;0.00;;;;;8.06;81.87;97417.13;5076021;28;45622;-76
2023/01/16 05:44:51;;;;;;;;;0.00;0.00;;;;;8.10;81.78;97404.59;5076192;28;46470;-76
2023/01/16 05:47:20;;;;;;;;;0.50;0.00;;;;;8.11;81.48;97393.97;5075818;28;46900;-76
2023/01/16 05:49:45;;;;;;;;;1.00;0.00;;;;;8.14;81.40;97401.44;5076037;28;45642;-80
2023/01/16 05:52:11;;;;;;;;;0.00;0.00;;;;;8.14;81.08;97392.81;5058178;28;45563;-80
2023/01/16 05:54:37;;;;;;;;;0.00;0.00;;;;;8.14;80.92;97383.19;5077035;28;45844;-81
2023/01/16 05:57:03;;;;;;;;;0.00;0.00;;;;;8.17;80.99;97393.28;5077037;28;46283;-79
2023/01/16 05:59:28;;;;;;;;;0.00;0.00;;;;;8.17;80.87;97385.44;5076305;28;45578;-82
2023/01/16 06:01:53;;;;;;;;;0.00;0.00;;;;;8.21;81.06;97391.13;5057851;28;45526;-82
2023/01/16 06:04:19;;;;;;;;;1.00;0.00;;;;;8.21;81.03;97365.03;5076713;28;46309;-79
2023/01/16 06:06:45;;;;;;;;;0.50;0.00;;;;;8.11;81.04;97344.44;5076264;28;46291;-81
2023/01/16 06:09:11;;;;;;;;;0.00;0.00;;;;;8.24;80.71;97362.09;5076771;28;45586;-78
2023/01/16 06:11:36;;;;;;;;;0.25;0.00;;;;;8.25;80.63;97366.34;5078074;28;45745;-75
2023/01/16 06:14:04;;;;;;;;;1.75;0.00;;;;;8.27;80.34;97380.00;5077445;28;45633;-76
2023/01/16 06:16:33;;;;;;;;;0.00;0.00;;;;;8.26;80.40;97358.31;5076098;28;45646;-75
2023/01/16 06:22:20;;;;;;;;;0.00;0.00;;;;;8.27;80.31;97346.09;5075380;28;45621;-74
2023/01/16 06:24:45;;;;;;;;;0.00;0.00;;;;;8.29;80.13;97341.53;5075363;28;46697;-76
2023/01/16 06:27:11;;;;;;;;;0.25;0.00;;;;;8.28;80.02;97340.72;5092265;27;46271;-75
2023/01/16 06:29:38;;;;;;;;;0.25;0.00;;;;;8.29;79.96;97326.69;5076135;28;45632;-77
2023/01/16 06:32:04;;;;;;;;;0.50;0.00;;;;;8.19;80.16;97305.28;5075387;28;45518;-78
2023/01/16 06:37:50;;;;;;;;;0.50;0.00;;;;;8.29;80.37;97311.06;5064303;28;45869;-79
2023/01/16 06:40:18;;;;;;;;;0.50;0.00;;;;;8.31;80.09;97311.69;5073615;28;45578;-76
2023/01/16 06:42:43;;;;;;;;;0.75;0.00;;;;;8.31;80.06;97308.31;5072465;28;45969;-74
2023/01/16 06:45:09;;;;;;;;;1.00;0.00;;;;;8.26;80.17;97285.31;5072394;28;45684;-76
2023/01/16 06:47:34;;;;;;;;;0.50;0.00;;;;;8.31;80.36;97295.25;5071423;28;46643;-73
2023/01/16 06:50:00;;;;;;;;;0.00;0.00;;;;;8.33;80.26;97259.38;5074293;28;45634;-77
2023/01/16 06:52:25;;;;;;;;;0.00;0.00;;;;;8.30;80.14;97278.81;5076967;28;45978;-75
2023/01/16 06:54:50;;;;;;;;;0.00;0.00;;;;;8.33;79.92;97270.63;5076115;28;45726;-72
2023/01/16 06:57:16;;;;;;;;;1.25;0.00;;;;;8.29;80.39;97266.72;5074931;28;46222;-77
2023/01/16 06:59:41;;;;;;;;;0.00;0.00;;;;;8.35;79.83;97258.22;5074842;28;45754;-74
2023/01/16 07:02:08;;;;;;;;;0.00;0.00;;;;;8.38;79.99;97257.03;5074734;28;45591;-73
2023/01/16 07:07:57;;;;;;;;;0.00;0.00;;;;;8.36;79.78;97238.16;5074510;28;45996;-78
2023/01/16 07:10:23;;;;;;;;;0.00;0.00;;;;;8.41;80.06;97238.44;5074413;28;45777;-74
2023/01/16 07:12:51;;;;;;;;;0.00;0.00;;;;;8.42;79.32;97237.47;5075065;28;45551;-76
2023/01/16 07:23:44;;;;;;;;;0.00;0.00;;;;;8.45;80.01;97197.16;5074540;28;45746;-77
2023/01/16 07:26:12;;;;;;;;;0.00;0.00;;;;;8.38;79.97;97173.56;5074168;28;47647;-76
2023/01/16 07:28:38;;;;;;;;;0.00;0.00;;;;;8.45;79.86;97189.31;5073832;28;46093;-78
2023/01/16 07:31:06;;;;;;;;;0.50;0.00;;;;;8.43;80.15;97171.25;5074305;28;45774;-75
2023/01/16 07:33:32;;;;;;;;;0.00;0.00;;;;;8.44;80.04;97167.66;5074441;28;45539;-78
2023/01/16 07:35:58;;;;;;;;;0.00;0.00;;;;;8.42;80.16;97161.81;5074290;28;46374;-75
2023/01/16 07:38:23;;;;;;;;;0.00;0.00;;;;;8.40;80.10;97148.94;5073811;28;47225;-76
2023/01/16 07:40:48;;;;;;;;;0.00;0.00;;;;;8.43;79.87;97143.34;5055940;28;45646;-77
2023/01/16 07:43:14;;;;;;;;;1.25;0.50;;;;;8.43;80.09;97132.94;5074668;28;45764;-74
2023/01/16 07:45:39;;;;;;;;;0.00;0.00;;;;;8.42;80.30;97135.75;5074071;28;45719;-75
2023/01/16 07:48:05;;;;;;;;;0.00;0.00;;;;;8.41;80.42;97123.69;5074714;28;46361;-77
2023/01/16 07:50:30;;;;;;;;;0.25;0.00;;;;;8.39;80.43;97117.81;5075296;28;45790;-73
2023/01/16 07:52:56;;;;;;;;;0.00;0.00;;;;;8.39;80.45;97115.22;5079281;28;45816;-74
2023/01/16 07:55:21;;;;;;;;;0.00;0.00;;;;;8.34;80.39;97100.13;5076174;28;46258;-79
2023/01/16 07:57:47;;;;;;;;;0.25;0.00;;;;;8.39;80.14;97099.56;5074527;28;45805;-81
2023/01/16 08:00:13;;;;;;;;;0.00;0.00;;;;;8.40;80.24;97090.75;5074965;28;45652;-81
2023/01/16 08:02:40;;;;;;;;;0.00;0.00;;;;;8.39;80.31;97092.56;5073970;28;45656;-76
2023/01/16 08:08:28;;;;;;;;;0.00;0.00;;;;;8.38;80.22;97075.28;5074365;28;45667;-79
2023/01/16 08:10:59;;;;;;;;;0.00;0.00;;;;;8.29;79.88;97046.84;5074298;28;45698;-79
2023/01/16 08:13:25;;;;;;;;;1.75;1.50;;;;;8.34;80.19;97061.00;5074887;28;45990;-80
2023/01/16 08:15:51;;;;;;;;;0.00;0.00;;;;;8.34;80.23;97047.16;5075134;28;46627;-83
2023/01/16 08:18:20;;;;;;;;;0.00;0.00;;;;;8.35;80.36;97046.16;5074725;28;46967;-75
2023/01/16 08:24:09;;;;;;;;;0.00;0.00;;;;;8.23;80.36;97018.91;5074442;28;45724;-80
2023/01/16 08:26:34;;;;;;;;;0.00;0.00;;;;;8.28;80.24;97024.38;5074777;28;45756;-74
2023/01/16 08:29:02;;;;;;;;;0.00;0.00;;;;;8.26;79.42;97032.38;5074063;28;45717;-74
2023/01/16 08:31:27;;;;;;;;;0.00;0.00;;;;;8.17;79.42;97017.00;5073795;28;45628;-73
2023/01/16 08:33:53;;;;;;;;;1.00;0.00;;;;;8.21;79.41;97024.28;5073898;28;45652;-75
2023/01/16 08:36:20;;;;;;;;;0.00;0.00;;;;;8.17;78.79;97033.47;5074285;28;46539;-74
2023/01/16 08:38:47;;;;;;;;;0.00;0.00;;;;;8.16;78.03;97025.81;5073797;28;47262;-78
2023/01/16 08:52:11;;;;;;;;;0.00;0.00;;;;;7.76;78.29;97027.13;5083496;28;45775;-79
2023/01/16 08:54:36;;;;;;;;;0.00;0.00;;;;;7.68;78.38;97035.81;5081292;28;45641;-81
2023/01/16 08:57:02;;;;;;;;;0.00;0.00;;;;;7.63;78.27;97048.56;5081019;28;45669;-80
2023/01/16 08:59:32;;;;;;;;;0.75;0.00;;;;;7.59;78.28;97042.91;5080420;28;46205;-79
2023/01/16 09:02:00;;;;;;;;;0.00;0.00;;;;;7.55;78.10;97041.66;5078948;28;45555;-75
2023/01/16 09:04:25;;;;;;;;;0.00;0.00;;;;;7.49;77.71;97039.78;5078656;28;45528;-76
2023/01/16 09:06:53;;;;;;;;;0.00;0.00;;;;;7.45;78.17;97040.31;5078029;28;45672;-73
2023/01/16 09:09:20;;;;;;;;;0.00;0.00;;;;;7.36;77.98;97042.16;5077364;28;46266;-77
2023/01/16 09:14:29;;;;;;;;;0.00;0.00;;;;;7.11;78.75;97049.38;5076871;28;45657;-76
2023/01/16 09:16:55;;;;;;;;;0.00;0.00;;;;;6.98;79.23;97048.31;5076751;28;46609;-79
2023/01/16 09:19:20;;;;;;;;;0.00;0.00;;;;;7.04;79.11;97077.06;5076318;28;46131;-74
2023/01/16 09:21:45;;;;;;;;;0.00;0.00;;;;;6.88;79.46;97078.97;5092323;27;45860;-74
2023/01/16 09:24:11;;;;;;;;;0.00;0.00;;;;;6.75;79.49;97095.13;5076575;28;45837;-77
2023/01/16 09:26:36;;;;;;;;;0.00;0.00;;;;;6.59;79.71;97110.84;5076812;28;46870;-74
2023/01/16 09:29:01;;;;;;;;;0.00;0.00;;;;;6.50;80.72;97106.66;5076688;28;46170;-77
2023/01/16 09:31:27;;;;;;;;;0.00;0.00;;;;;6.41;80.52;97110.28;5076001;28;45525;-76
2023/01/16 09:33:54;;;;;;;;;0.00;0.00;;;;;6.37;80.61;97132.41;5076377;28;45818;-76
2023/01/16 09:39:55;;;;;;;;;0.00;0.00;;;;;6.17;80.71;97163.97;5067426;28;46041;-80
2023/01/16 09:45:46;;;;;;;;;0.00;0.00;;;;;6.05;80.91;97170.47;5076131;28;45781;-80
2023/01/16 09:48:20;;;;;;;;;0.00;0.00;;;;;6.03;81.42;97200.22;5076118;28;45797;-78
2023/01/16 09:59:56;;;;;;;;;0.00;0.00;;;;;6.10;81.72;97238.34;5075999;28;45578;-74
2023/01/16 10:02:32;;;;;;;;;0.00;0.00;;;;;6.13;82.14;97266.63;5075652;28;46628;-79
2023/01/16 10:04:59;;;;;;;;;0.00;0.00;;;;;6.14;82.07;97265.66;5076143;28;45567;-81
2023/01/16 10:07:35;;;;;;;;;0.00;0.00;;;;;6.22;81.81;97257.03;5076564;28;45661;-75
2023/01/16 10:10:28;;;;;;;;;0.00;0.00;;;;;6.25;81.94;97270.53;5076195;28;46621;-76
2023/01/16 10:13:24;;;;;;;;;0.00;0.00;;;;;6.32;81.92;97320.03;5074540;28;46120;-81
2023/01/16 10:16:14;;;;;;;;;0.00;0.00;;;;;6.40;82.04;97308.84;5077395;28;45825;-82
2023/01/16 10:19:04;;;;;;;;;0.00;0.00;;;;;6.48;82.08;97308.84;5075795;28;45708;-80
2023/01/16 10:22:13;;;;;;;;;0.00;0.00;;;;;6.54;82.62;97316.78;5077539;28;45628;-74
2023/01/16 10:25:05;;;;;;;;;1.00;0.00;;;;;6.52;83.38;97310.94;5035617;28;46249;-76
2023/01/16 10:27:41;;;;;;;;;0.00;0.00;;;;;6.52;83.72;97341.34;5036143;28;45718;-75
2023/01/16 10:30:32;;;;;;;;;0.25;0.00;;;;;6.52;84.19;97344.75;5035661;28;45825;-73
2023/01/16 10:33:00;;;;;;;;;0.25;0.25;;;;;6.48;84.07;97379.81;4955575;28;45702;-74
2023/01/16 10:38:55;;;;;;;;;0.00;0.00;;;;;6.43;84.02;97363.09;4956269;28;45599;-75
2023/01/16 10:53:23;;;;;;;;;0.00;0.00;;;;;6.43;83.06;97474.88;4958143;28;45765;-77
2023/01/16 10:55:52;;;;;;;;;0.00;0.00;;;;;6.44;82.63;97456.53;4969969;28;46191;-77
2023/01/16 10:58:17;;;;;;;;;0.00;0.00;;;;;6.44;83.20;97544.94;4977273;28;46324;-78
2023/01/16 11:00:44;;;;;;;;;0.00;0.00;;;;;6.38;84.08;97474.56;4980746;28;45620;-77
2023/01/16 11:03:34;;;;;;;;;0.00;0.00;;;;;6.27;84.49;97499.88;4980990;28;45739;-76
2023/01/16 11:09:23;;;;;;;;;0.00;0.00;;;;;6.05;85.63;97520.44;5001545;28;45572;-79
2023/01/16 11:20:24;;;;;;;;;0.00;0.00;;;;;5.55;87.37;97562.72;5078715;28;46434;-83
2023/01/16 11:23:15;;;;;;;;;0.00;0.00;;;;;5.55;88.03;97572.28;5076654;28;45534;-82
2023/01/16 11:25:41;;;;;;;;;0.00;0.00;;;;;5.52;88.08;97617.53;5034074;28;45818;-81
2023/01/16 11:28:11;;;;;;;;;0.00;0.00;;;;;5.54;87.78;97615.59;5038653;28;46203;-81
2023/01/16 11:30:42;;;;;;;;;1.00;0.00;;;;;5.51;88.00;97596.91;5039957;28;45727;-79
2023/01/16 11:33:17;;;;;;;;;0.00;0.00;;;;;5.54;88.46;97651.13;5035672;28;45758;-79
2023/01/16 11:35:51;;;;;;;;;0.00;0.00;;;;;5.54;88.38;97576.66;5033822;28;45635;-82
2023/01/16 11:38:17;;;;;;;;;0.00;0.00;;;;;5.51;88.23;97602.13;5038722;28;46034;-79
2023/01/16 11:40:46;;;;;;;;;0.00;0.00;;;;;5.61;88.46;97632.22;5040032;28;47605;-82
2023/01/16 11:46:02;;;;;;;;;0.00;0.00;;;;;5.55;89.49;97591.28;5033415;28;45583;-78
2023/01/16 11:48:36;;;;;;;;;0.00;0.00;;;;;5.68;88.80;97635.81;5034890;28;45607;-81
2023/01/16 11:51:03;;;;;;;;;0.00;0.00;;;;;5.75;89.02;97623.84;5034745;28;47096;-75
2023/01/16 11:53:31;;;;;;;;;0.50;0.00;;;;;5.77;88.66;97628.91;5034493;28;45610;-71
2023/01/16 11:56:21;;;;;;;;;0.00;0.00;;;;;5.79;88.23;97663.31;5015283;28;45623;-77
2023/01/16 11:58:46;;;;;;;;;0.00;0.00;;;;;5.82;88.48;97676.03;5031833;28;46554;-76
2023/01/16 12:01:25;;;;;;;;;0.00;0.00;;;;;5.86;88.63;97674.75;5031274;28;46037;-75
2023/01/16 12:04:20;;;;;;;;;0.00;0.00;;;;;5.92;88.46;97668.16;5074125;28;45767;-75
2023/01/16 12:06:57;;;;;;;;;0.00;0.00;;;;;5.96;87.85;97664.28;5074484;28;45563;-74
2023/01/16 12:09:31;;;;;;;;;0.00;0.00;;;;;6.00;87.85;97670.78;5075251;28;46809;-77
2023/01/16 12:15:35;;;;;;;;;1.00;0.00;;;;;6.08;87.43;97687.28;5075289;28;45546;-77
2023/01/16 12:18:19;;;;;;;;;0.00;0.00;;;;;6.12;87.48;97747.53;5076306;28;45757;-76
2023/01/16 12:24:11;;;;;;;;;0.00;0.00;;;;;6.20;86.40;97730.25;5074191;28;46075;-78
2023/01/16 12:26:58;;;;;;;;;0.00;0.00;;;;;6.30;86.51;97740.53;5073995;28;45617;-75
2023/01/16 12:29:45;;;;;;;;;0.00;0.00;;;;;6.32;86.33;97733.38;5074169;28;45552;-77
2023/01/16 12:32:22;;;;;;;;;0.00;0.00;;;;;6.37;86.65;97796.13;5073868;28;47342;-78
2023/01/16 12:34:55;;;;;;;;;0.50;0.00;;;;;6.36;87.60;97742.53;5075081;28;46034;-78
2023/01/16 12:43:55;;;;;;;;;0.25;0.00;;;;;6.08;87.49;97782.59;5074040;28;46232;-71
2023/01/16 12:46:39;;;;;;;;;1.00;0.00;;;;;6.03;87.47;97827.25;5073834;28;45701;-74
2023/01/16 12:49:21;;;;;;;;;0.00;0.00;;;;;5.97;87.37;97827.81;5074047;28;45630;-72
2023/01/16 12:55:26;;;;;;;;;0.50;0.00;;;;;5.82;87.29;97801.53;5073212;28;45622;-76
2023/01/16 12:58:06;;;;;;;;;0.00;0.00;;;;;5.80;87.81;97867.56;5073401;28;46256;-75
2023/01/16 13:00:53;;;;;;;;;0.00;0.00;;;;;5.76;87.40;97822.91;5073861;28;45661;-80
2023/01/16 13:03:24;;;;;;;;;0.00;0.00;;;;;5.75;87.21;97823.84;5074313;28;45807;-72
2023/01/16 13:05:53;;;;;;;;;0.00;0.00;;;;;5.71;87.30;97892.66;5073644;28;45723;-74
2023/01/16 13:14:42;;;;;;;;;0.00;0.00;;;;;5.74;87.10;97863.78;5074089;28;45620;-79
2023/01/16 13:17:21;;;;;;;;;1.00;0.00;;;;;5.75;87.25;97874.97;5074021;28;45873;-81
2023/01/16 13:19:49;;;;;;;;;0.25;0.00;;;;;5.81;86.02;97884.78;5074567;28;46196;-76
2023/01/16 13:22:29;;;;;;;;;0.00;0.00;;;;;5.86;86.03;97934.53;5055456;28;45611;-82
2023/01/16 13:25:14;;;;;;;;;1.25;0.50;;;;;5.93;85.38;97873.28;5074281;28;45794;-82
2023/01/16 13:27:47;;;;;;;;;1.00;0.00;;;;;6.01;84.94;97898.50;5075442;28;46860;-77
2023/01/16 13:30:18;;;;;;;;;1.00;0.00;;;;;6.08;84.91;97899.56;5076367;28;46223;-81
2023/01/16 13:32:59;;;;;;;;;0.25;0.00;;;;;6.12;84.91;97893.91;5077084;28;45647;-85
2023/01/16 13:35:33;;;;;;;;;1.00;0.00;;;;;6.25;84.62;97904.78;5078999;28;45579;-76
2023/01/16 13:38:41;;;;;;;;;2.00;1.00;;;;;6.32;84.07;97912.75;5079209;28;46444;-80
2023/01/16 13:41:11;;;;;;;;;0.00;0.00;;;;;6.39;83.80;97962.41;5078513;28;45798;-82
2023/01/16 13:46:34;;;;;;;;;2.00;0.75;;;;;6.49;82.42;97927.56;5077660;28;45693;-78
2023/01/16 13:49:02;;;;;;;;;1.25;1.00;;;;;6.51;81.86;97966.41;5077699;28;46573;-83
2023/01/16 13:51:28;;;;;;;;;1.25;1.00;;;;;6.59;82.04;97937.88;5076949;28;47670;-86
2023/01/16 13:53:58;;;;;;;;;2.00;1.00;;;;;6.65;81.62;97945.06;5076897;28;45798;-83
2023/01/16 13:56:26;;;;;;;;;1.50;1.00;;;;;6.72;81.23;97948.72;5076984;28;45527;-79
2023/01/16 13:59:06;;;;;;;;;3.00;1.00;;;;;6.79;81.33;97960.16;5076994;28;45966;-83
2023/01/16 14:01:43;;;;;;;;;0.00;0.00;;;;;6.82;80.77;97949.44;5077421;28;46396;-86
2023/01/16 14:04:14;;;;;;;;;2.25;1.00;;;;;6.85;81.18;97972.59;5078236;28;45541;-81
2023/01/16 14:10:21;;;;;;;;;0.00;0.00;;;;;6.93;80.62;97970.03;5077574;28;45454;-80
2023/01/16 14:13:14;;;;;;;;;2.00;1.00;;;;;6.97;81.07;97975.75;5076214;28;46236;-85
2023/01/16 14:19:02;;;;;;;;;1.00;0.00;;;;;7.02;80.14;97986.50;5075171;28;45777;-79
2023/01/16 14:21:43;;;;;;;;;0.00;0.00;;;;;7.05;79.96;98001.84;5074512;28;47864;-79
2023/01/16 14:27:40;;;;;;;;;0.75;0.00;;;;;7.06;80.38;98042.53;5075211;28;45937;-79
2023/01/16 14:30:17;;;;;;;;;1.50;1.00;;;;;7.03;80.49;97999.38;5076200;28;45762;-85
2023/01/16 14:32:50;;;;;;;;;1.25;0.00;;;;;7.04;79.87;97993.22;5076426;28;46441;-81
2023/01/16 14:35:23;;;;;;;;;0.00;0.00;;;;;7.05;80.55;98054.72;5077168;28;46443;-85
2023/01/16 14:37:59;;;;;;;;;0.00;0.00;;;;;7.02;79.47;98026.38;5077174;28;45534;-80
2023/01/16 14:55:48;;;;;;;;;0.00;0.00;;;;;6.51;83.70;98058.28;5073831;28;45715;-72
2023/01/16 14:58:19;;;;;;;;;0.00;0.00;;;;;6.35;83.70;98080.66;5073827;28;45717;-80
2023/01/16 15:00:49;;;;;;;;;1.75;0.50;;;;;6.29;83.84;98090.69;5073382;28;45954;-72
2023/01/16 15:03:23;;;;;;;;;0.00;0.00;;;;;6.23;84.10;98078.25;5073974;28;45649;-77
2023/01/16 15:06:03;;;;;;;;;1.00;0.50;;;;;6.20;84.77;98085.53;5073776;28;46494;-79
2023/01/16 15:11:55;;;;;;;;;0.50;0.50;;;;;6.26;84.74;98097.97;5073432;28;45756;-79
2023/01/16 15:14:25;;;;;;;;;0.00;0.00;;;;;6.26;84.01;98093.56;5074645;28;45716;-77